createdAt,value
2016-09-18T00:00:03.911Z,16.33
2016-09-18T00:01:04.549Z,16.35
2016-09-18T00:02:05.193Z,16.33
2016-09-18T00:03:05.844Z,16.28
2016-09-18T00:04:06.486Z,16.33
2016-09-18T00:05:07.137Z,16.32
2016-09-18T00:06:07.799Z,16.13
2016-09-18T00:07:08.506Z,16.17
2016-09-18T00:08:09.201Z,16.15
2016-09-18T00:09:09.899Z,16.23
2016-09-18T00:10:10.618Z,16.33
2016-09-18T00:11:11.360Z,16.15
2016-09-18T00:12:12.014Z,16.2
2016-09-18T00:13:12.665Z,16.17
2016-09-18T00:14:13.303Z,16.23
2016-09-18T00:15:14.822Z,16.13
2016-09-18T00:16:15.471Z,16.08
2016-09-18T00:17:16.117Z,16.13
2016-09-18T00:18:16.764Z,16.12
2016-09-18T00:19:17.403Z,16.12
2016-09-18T00:20:18.050Z,16.12
2016-09-18T00:21:18.695Z,16.16
2016-09-18T00:22:19.340Z,16.15
2016-09-18T00:23:23.958Z,16.09
2016-09-18T00:24:24.618Z,16.13
2016-09-18T00:25:25.274Z,16.16
2016-09-18T00:26:25.933Z,16.09
2016-09-18T00:27:26.567Z,16.08
2016-09-18T00:28:27.215Z,16.12
2016-09-18T00:29:27.879Z,16.12
2016-09-18T00:30:28.519Z,16.1
2016-09-18T00:31:29.189Z,16.12
2016-09-18T00:32:29.850Z,16.05
2016-09-18T00:33:30.511Z,16.1
2016-09-18T00:34:31.158Z,16.1
2016-09-18T00:35:31.789Z,16.05
2016-09-18T00:36:32.443Z,16.02
2016-09-18T00:37:33.068Z,15.94
2016-09-18T00:38:33.703Z,15.95
2016-09-18T00:39:34.403Z,15.95
2016-09-18T00:40:35.058Z,15.94
2016-09-18T00:41:35.743Z,15.91
2016-09-18T00:42:36.374Z,15.98
2016-09-18T00:43:37.051Z,15.84
2016-09-18T00:44:37.691Z,15.84
2016-09-18T00:45:38.324Z,15.92
2016-09-18T00:46:38.991Z,15.88
2016-09-18T00:47:39.659Z,15.84
2016-09-18T00:48:40.337Z,15.82
2016-09-18T00:49:40.998Z,15.88
2016-09-18T00:50:41.653Z,15.9
2016-09-18T00:51:42.313Z,15.76
2016-09-18T00:52:42.954Z,15.79
2016-09-18T00:53:43.623Z,15.76
2016-09-18T00:54:44.260Z,15.76
2016-09-18T00:55:44.922Z,15.86
2016-09-18T00:56:45.576Z,15.88
2016-09-18T00:57:46.234Z,15.9
2016-09-18T00:58:46.921Z,15.86
2016-09-18T00:59:47.576Z,15.91
2016-09-18T01:00:48.217Z,15.9
2016-09-18T01:01:48.874Z,15.88
2016-09-18T01:02:49.528Z,15.84
2016-09-18T01:03:50.177Z,15.88
2016-09-18T01:04:50.827Z,15.91
2016-09-18T01:05:51.467Z,15.84
2016-09-18T01:06:52.129Z,15.68
2016-09-18T01:07:52.778Z,15.68
2016-09-18T01:08:53.442Z,15.9
2016-09-18T01:09:54.097Z,15.86
2016-09-18T01:10:54.758Z,15.72
2016-09-18T01:11:55.416Z,15.75
2016-09-18T01:12:56.062Z,15.84
2016-09-18T01:13:56.714Z,15.79
2016-09-18T01:14:57.356Z,15.76
2016-09-18T01:15:58.014Z,15.7
2016-09-18T01:16:58.650Z,15.7
2016-09-18T01:17:59.307Z,15.73
2016-09-18T01:18:59.977Z,15.83
2016-09-18T01:20:00.620Z,15.77
2016-09-18T01:21:01.278Z,15.8
2016-09-18T01:22:01.919Z,15.73
2016-09-18T01:23:02.579Z,15.76
2016-09-18T01:24:03.233Z,15.8
2016-09-18T01:25:03.874Z,15.75
2016-09-18T01:26:04.515Z,15.67
2016-09-18T01:27:05.166Z,15.68
2016-09-18T01:28:05.826Z,15.62
2016-09-18T01:29:06.484Z,15.65
2016-09-18T01:30:07.134Z,15.7
2016-09-18T01:31:07.807Z,15.7
2016-09-18T01:32:08.485Z,15.61
2016-09-18T01:33:09.156Z,15.59
2016-09-18T01:34:09.823Z,15.65
2016-09-18T01:35:10.480Z,15.64
2016-09-18T01:36:11.130Z,15.73
2016-09-18T01:37:11.791Z,15.64
2016-09-18T01:38:12.466Z,15.7
2016-09-18T01:39:13.139Z,15.58
2016-09-18T01:40:13.780Z,15.58
2016-09-18T01:41:14.427Z,15.58
2016-09-18T01:42:15.095Z,15.64
2016-09-18T01:43:15.756Z,15.64
2016-09-18T01:44:16.405Z,15.64
2016-09-18T01:45:17.058Z,15.62
2016-09-18T01:46:17.692Z,15.67
2016-09-18T01:47:18.327Z,15.67
2016-09-18T01:48:18.960Z,15.62
2016-09-18T01:49:19.597Z,15.64
2016-09-18T01:50:20.249Z,15.62
2016-09-18T01:51:20.909Z,15.64
2016-09-18T01:52:21.570Z,15.61
2016-09-18T01:53:22.232Z,15.59
2016-09-18T01:54:22.879Z,15.57
2016-09-18T01:55:23.529Z,15.62
2016-09-18T01:56:24.149Z,15.64
2016-09-18T01:57:24.840Z,15.55
2016-09-18T01:58:25.496Z,15.58
2016-09-18T01:59:26.160Z,15.58
2016-09-18T02:00:26.826Z,15.55
2016-09-18T02:01:27.476Z,15.72
2016-09-18T02:02:28.126Z,15.54
2016-09-18T02:03:28.772Z,15.57
2016-09-18T02:04:29.435Z,15.49
2016-09-18T02:05:30.096Z,15.51
2016-09-18T02:06:30.737Z,15.49
2016-09-18T02:07:31.387Z,15.59
2016-09-18T02:08:32.033Z,15.64
2016-09-18T02:09:32.690Z,15.64
2016-09-18T02:10:33.329Z,15.61
2016-09-18T02:11:33.998Z,15.64
2016-09-18T02:12:34.657Z,15.65
2016-09-18T02:13:35.291Z,15.58
2016-09-18T02:14:35.950Z,15.62
2016-09-18T02:15:36.635Z,15.58
2016-09-18T02:16:37.347Z,15.61
2016-09-18T02:17:38.324Z,15.61
2016-09-18T02:18:38.953Z,15.65
2016-09-18T02:19:39.618Z,15.58
2016-09-18T02:20:40.268Z,15.54
2016-09-18T02:21:41.013Z,15.57
2016-09-18T02:22:41.643Z,15.57
2016-09-18T02:23:42.302Z,15.52
2016-09-18T02:24:42.946Z,15.52
2016-09-18T02:25:43.580Z,15.51
2016-09-18T02:26:44.233Z,15.54
2016-09-18T02:27:44.901Z,15.49
2016-09-18T02:28:45.546Z,15.54
2016-09-18T02:29:46.193Z,15.51
2016-09-18T02:30:46.875Z,15.51
2016-09-18T02:31:47.485Z,15.52
2016-09-18T02:32:48.117Z,15.47
2016-09-18T02:33:48.763Z,15.46
2016-09-18T02:34:49.399Z,15.44
2016-09-18T02:35:50.074Z,15.43
2016-09-18T02:36:50.711Z,15.47
2016-09-18T02:37:51.363Z,15.44
2016-09-18T02:38:52.013Z,15.42
2016-09-18T02:39:52.666Z,15.39
2016-09-18T02:40:53.330Z,15.37
2016-09-18T02:41:53.987Z,15.4
2016-09-18T02:42:54.629Z,15.35
2016-09-18T02:43:55.366Z,15.31
2016-09-18T02:44:55.974Z,15.42
2016-09-18T02:45:56.619Z,15.39
2016-09-18T02:46:57.309Z,15.37
2016-09-18T02:47:57.980Z,15.33
2016-09-18T02:48:58.618Z,15.29
2016-09-18T02:49:59.248Z,15.33
2016-09-18T02:50:59.954Z,15.36
2016-09-18T02:52:00.591Z,15.4
2016-09-18T02:53:01.227Z,15.22
2016-09-18T02:54:01.870Z,15.31
2016-09-18T02:55:02.506Z,15.33
2016-09-18T02:56:03.163Z,15.31
2016-09-18T02:57:03.821Z,15.35
2016-09-18T02:58:04.470Z,15.28
2016-09-18T02:59:05.128Z,15.4
2016-09-18T03:00:05.797Z,15.27
2016-09-18T03:01:06.461Z,15.27
2016-09-18T03:02:07.102Z,15.22
2016-09-18T03:03:07.755Z,15.28
2016-09-18T03:04:08.388Z,15.25
2016-09-18T03:05:09.027Z,15.28
2016-09-18T03:06:09.690Z,15.17
2016-09-18T03:07:10.359Z,15.18
2016-09-18T03:08:11.008Z,15.24
2016-09-18T03:09:12.040Z,15.18
2016-09-18T03:10:12.679Z,15.25
2016-09-18T03:11:13.340Z,15.1
2016-09-18T03:12:14.006Z,15.18
2016-09-18T03:13:14.642Z,15.11
2016-09-18T03:14:15.303Z,15.15
2016-09-18T03:15:15.949Z,15.15
2016-09-18T03:16:16.599Z,15.18
2016-09-18T03:17:17.257Z,15.15
2016-09-18T03:18:17.893Z,15.18
2016-09-18T03:19:18.529Z,15.18
2016-09-18T03:20:19.167Z,15.19
2016-09-18T03:21:19.813Z,15.15
2016-09-18T03:22:20.459Z,15.17
2016-09-18T03:23:21.095Z,15.15
2016-09-18T03:24:21.778Z,15.19
2016-09-18T03:25:22.431Z,15.07
2016-09-18T03:26:23.097Z,15.09
2016-09-18T03:27:23.733Z,15.07
2016-09-18T03:28:24.363Z,15.06
2016-09-18T03:29:24.994Z,15.09
2016-09-18T03:30:25.642Z,15.07
2016-09-18T03:31:26.282Z,15.1
2016-09-18T03:32:26.921Z,15.03
2016-09-18T03:33:27.577Z,15.15
2016-09-18T03:34:28.199Z,15.06
2016-09-18T03:35:28.848Z,15.14
2016-09-18T03:36:29.507Z,15.15
2016-09-18T03:37:30.159Z,15.06
2016-09-18T03:38:30.813Z,15.03
2016-09-18T03:39:31.455Z,15.09
2016-09-18T03:40:32.099Z,15.09
2016-09-18T03:41:32.777Z,15.07
2016-09-18T03:42:33.415Z,15.11
2016-09-18T03:43:34.064Z,15.07
2016-09-18T03:44:34.729Z,15.11
2016-09-18T03:45:35.385Z,15.04
2016-09-18T03:46:36.043Z,15.15
2016-09-18T03:47:36.707Z,15.18
2016-09-18T03:48:37.349Z,15.17
2016-09-18T03:49:38.009Z,15.09
2016-09-18T03:50:38.669Z,15.15
2016-09-18T03:51:39.297Z,15.17
2016-09-18T03:52:39.937Z,15.17
2016-09-18T03:53:40.585Z,15.11
2016-09-18T03:54:41.223Z,15.11
2016-09-18T03:55:41.859Z,15.15
2016-09-18T03:56:42.497Z,15.18
2016-09-18T03:57:43.145Z,15.21
2016-09-18T03:58:43.793Z,15.17
2016-09-18T03:59:44.438Z,15.14
2016-09-18T04:00:45.082Z,15.1
2016-09-18T04:01:45.728Z,15.15
2016-09-18T04:02:46.359Z,15.15
2016-09-18T04:03:47.011Z,15.15
2016-09-18T04:04:47.655Z,15.22
2016-09-18T04:05:48.310Z,15.18
2016-09-18T04:06:48.964Z,15.15
2016-09-18T04:07:49.608Z,15.19
2016-09-18T04:08:50.262Z,15.14
2016-09-18T04:09:50.892Z,15.15
2016-09-18T04:10:51.543Z,15.18
2016-09-18T04:11:52.183Z,15.14
2016-09-18T04:12:52.820Z,15.17
2016-09-18T04:13:53.467Z,15.11
2016-09-18T04:14:54.104Z,14.99
2016-09-18T04:15:54.770Z,15.06
2016-09-18T04:16:55.441Z,15.1
2016-09-18T04:17:56.097Z,15.07
2016-09-18T04:18:56.736Z,15.1
2016-09-18T04:19:57.362Z,15.09
2016-09-18T04:20:58.026Z,15.09
2016-09-18T04:21:58.663Z,15.07
2016-09-18T04:22:59.309Z,15.06
2016-09-18T04:23:59.970Z,15.02
2016-09-18T04:25:00.610Z,15.02
2016-09-18T04:26:01.266Z,15
2016-09-18T04:27:01.942Z,15.06
2016-09-18T04:28:02.616Z,15.03
2016-09-18T04:29:03.292Z,15.07
2016-09-18T04:30:03.952Z,15.07
2016-09-18T04:31:04.645Z,15.02
2016-09-18T04:32:05.304Z,15.03
2016-09-18T04:33:05.934Z,14.92
2016-09-18T04:34:06.608Z,15.02
2016-09-18T04:35:07.376Z,15.07
2016-09-18T04:36:08.044Z,15.06
2016-09-18T04:37:08.678Z,15.07
2016-09-18T04:38:09.342Z,15.02
2016-09-18T04:39:09.986Z,14.99
2016-09-18T04:40:10.632Z,14.96
2016-09-18T04:41:11.304Z,14.91
2016-09-18T04:42:11.936Z,14.84
2016-09-18T04:43:12.583Z,14.89
2016-09-18T04:44:13.224Z,14.84
2016-09-18T04:45:13.885Z,14.85
2016-09-18T04:46:14.576Z,14.81
2016-09-18T04:47:15.224Z,14.82
2016-09-18T04:48:15.857Z,14.81
2016-09-18T04:49:16.498Z,14.84
2016-09-18T04:50:17.161Z,14.81
2016-09-18T04:51:17.821Z,14.86
2016-09-18T04:52:18.455Z,14.78
2016-09-18T04:53:19.095Z,14.69
2016-09-18T04:54:19.727Z,14.66
2016-09-18T04:55:20.382Z,14.68
2016-09-18T04:56:21.017Z,14.59
2016-09-18T04:57:21.690Z,14.66
2016-09-18T04:58:22.346Z,14.7
2016-09-18T04:59:22.994Z,14.69
2016-09-18T05:00:23.657Z,14.65
2016-09-18T05:01:24.301Z,14.7
2016-09-18T05:02:24.952Z,14.72
2016-09-18T05:03:25.600Z,14.69
2016-09-18T05:04:26.244Z,14.69
2016-09-18T05:05:26.902Z,14.65
2016-09-18T05:06:27.566Z,14.6
2016-09-18T05:07:28.209Z,14.69
2016-09-18T05:08:28.847Z,14.72
2016-09-18T05:09:29.482Z,14.65
2016-09-18T05:10:30.137Z,14.66
2016-09-18T05:11:30.760Z,14.68
2016-09-18T05:12:31.406Z,14.6
2016-09-18T05:13:32.082Z,14.54
2016-09-18T05:14:32.736Z,14.54
2016-09-18T05:15:33.404Z,14.59
2016-09-18T05:16:34.052Z,14.59
2016-09-18T05:17:34.705Z,14.48
2016-09-18T05:18:35.362Z,14.55
2016-09-18T05:19:36.021Z,14.59
2016-09-18T05:20:36.663Z,14.58
2016-09-18T05:21:37.328Z,14.51
2016-09-18T05:22:37.976Z,14.58
2016-09-18T05:23:38.634Z,14.55
2016-09-18T05:24:39.281Z,14.63
2016-09-18T05:25:39.976Z,14.7
2016-09-18T05:26:40.609Z,14.68
2016-09-18T05:27:41.261Z,14.7
2016-09-18T05:28:41.901Z,14.72
2016-09-18T05:29:42.542Z,14.63
2016-09-18T05:30:43.191Z,14.69
2016-09-18T05:31:43.852Z,14.69
2016-09-18T05:32:44.492Z,14.69
2016-09-18T05:33:45.135Z,14.72
2016-09-18T05:34:45.776Z,14.78
2016-09-18T05:35:46.446Z,14.69
2016-09-18T05:36:47.119Z,14.73
2016-09-18T05:37:47.789Z,14.72
2016-09-18T05:38:48.453Z,14.73
2016-09-18T05:39:49.096Z,14.78
2016-09-18T05:40:49.749Z,14.78
2016-09-18T05:41:50.408Z,14.69
2016-09-18T05:42:51.057Z,14.68
2016-09-18T05:43:51.722Z,14.69
2016-09-18T05:44:52.392Z,14.68
2016-09-18T05:45:53.031Z,14.72
2016-09-18T05:46:53.709Z,14.69
2016-09-18T05:47:54.349Z,14.63
2016-09-18T05:48:54.993Z,14.69
2016-09-18T05:49:55.653Z,14.63
2016-09-18T05:50:56.313Z,14.7
2016-09-18T05:51:56.987Z,14.68
2016-09-18T05:52:57.665Z,14.69
2016-09-18T05:53:58.319Z,14.77
2016-09-18T05:54:58.966Z,14.82
2016-09-18T05:55:59.626Z,14.81
2016-09-18T05:57:00.272Z,14.78
2016-09-18T05:58:00.930Z,14.84
2016-09-18T05:59:01.565Z,14.79
2016-09-18T06:00:02.222Z,14.82
2016-09-18T06:01:02.889Z,14.89
2016-09-18T06:02:03.531Z,14.88
2016-09-18T06:03:04.189Z,14.89
2016-09-18T06:04:04.827Z,14.89
2016-09-18T06:05:05.480Z,14.89
2016-09-18T06:06:06.147Z,14.89
2016-09-18T06:07:06.794Z,14.92
2016-09-18T06:08:07.449Z,14.86
2016-09-18T06:09:08.115Z,14.92
2016-09-18T06:10:08.802Z,14.97
2016-09-18T06:11:09.462Z,15.03
2016-09-18T06:12:10.133Z,15.06
2016-09-18T06:13:10.808Z,15.02
2016-09-18T06:14:11.476Z,15.07
2016-09-18T06:15:12.148Z,15.03
2016-09-18T06:16:12.835Z,15.07
2016-09-18T06:17:13.527Z,15.15
2016-09-18T06:18:14.272Z,15.11
2016-09-18T06:19:14.944Z,15.11
2016-09-18T06:20:15.589Z,15.11
2016-09-18T06:21:16.243Z,15.06
2016-09-18T06:22:16.895Z,15.07
2016-09-18T06:23:17.532Z,15.1
2016-09-18T06:24:18.200Z,15.19
2016-09-18T06:25:18.862Z,15.15
2016-09-18T06:26:19.547Z,15.25
2016-09-18T06:27:20.199Z,15.27
2016-09-18T06:28:20.847Z,15.17
2016-09-18T06:29:21.501Z,15.35
2016-09-18T06:30:22.161Z,15.46
2016-09-18T06:31:22.811Z,15.57
2016-09-18T06:32:23.475Z,15.55
2016-09-18T06:33:24.127Z,15.47
2016-09-18T06:34:24.774Z,15.68
2016-09-18T06:35:25.417Z,15.52
2016-09-18T06:36:26.050Z,15.52
2016-09-18T06:37:26.712Z,15.59
2016-09-18T06:38:27.405Z,15.47
2016-09-18T06:39:28.065Z,15.43
2016-09-18T06:40:28.719Z,15.52
2016-09-18T06:41:29.366Z,15.76
2016-09-18T06:42:30.021Z,16.05
2016-09-18T06:43:30.666Z,16.29
2016-09-18T06:44:31.323Z,16.87
2016-09-18T06:45:31.995Z,17.31
2016-09-18T06:46:32.642Z,17.67
2016-09-18T06:47:33.305Z,18.15
2016-09-18T06:48:33.964Z,18.52
2016-09-18T06:49:34.621Z,18.6
2016-09-18T06:50:35.308Z,17.86
2016-09-18T06:51:35.954Z,17.85
2016-09-18T06:52:36.605Z,18.01
2016-09-18T06:53:37.258Z,18.68
2016-09-18T06:54:37.914Z,18.68
2016-09-18T06:55:38.575Z,18.25
2016-09-18T06:56:39.238Z,18.01
2016-09-18T06:57:39.912Z,18.03
2016-09-18T06:58:40.586Z,18.29
2016-09-18T06:59:41.259Z,18.15
2016-09-18T07:00:41.928Z,18.18
2016-09-18T07:01:42.579Z,18.53
2016-09-18T07:02:43.229Z,18.86
2016-09-18T07:03:43.886Z,18.49
2016-09-18T07:04:44.547Z,18.45
2016-09-18T07:05:45.231Z,18.68
2016-09-18T07:06:45.890Z,18.62
2016-09-18T07:07:46.548Z,18.75
2016-09-18T07:08:47.199Z,18.98
2016-09-18T07:09:47.881Z,18.99
2016-09-18T07:10:48.543Z,18.98
2016-09-18T07:11:49.216Z,19
2016-09-18T07:12:49.862Z,19.29
2016-09-18T07:13:50.519Z,19.34
2016-09-18T07:14:51.184Z,19.48
2016-09-18T07:15:51.844Z,19.63
2016-09-18T07:16:52.532Z,19.55
2016-09-18T07:17:53.193Z,19.62
2016-09-18T07:18:53.872Z,19.71
2016-09-18T07:19:54.533Z,19.48
2016-09-18T07:20:55.211Z,19.55
2016-09-18T07:21:55.875Z,18.9
2016-09-18T07:22:56.536Z,18.71
2016-09-18T07:23:57.271Z,18.38
2016-09-18T07:24:57.943Z,18.13
2016-09-18T07:25:58.628Z,18.03
2016-09-18T07:26:59.296Z,18.22
2016-09-18T07:27:59.956Z,18.5
2016-09-18T07:29:00.630Z,18.52
2016-09-18T07:30:01.327Z,18.65
2016-09-18T07:31:01.995Z,18.89
2016-09-18T07:32:02.651Z,18.78
2016-09-18T07:33:03.323Z,18.9
2016-09-18T07:34:03.997Z,19.08
2016-09-18T07:35:04.667Z,18.93
2016-09-18T07:36:05.319Z,18.92
2016-09-18T07:37:06.037Z,18.89
2016-09-18T07:38:06.695Z,18.92
2016-09-18T07:39:07.348Z,19.22
2016-09-18T07:40:08.013Z,19.71
2016-09-18T07:41:08.664Z,19.48
2016-09-18T07:42:09.315Z,19.7
2016-09-18T07:43:09.987Z,20.1
2016-09-18T07:44:10.669Z,19.88
2016-09-18T07:45:11.321Z,19.74
2016-09-18T07:46:11.972Z,19.81
2016-09-18T07:47:12.624Z,19.91
2016-09-18T07:48:13.299Z,19.77
2016-09-18T07:49:13.976Z,19.64
2016-09-18T07:50:14.645Z,19.56
2016-09-18T07:51:15.319Z,19.41
2016-09-18T07:52:15.986Z,19.16
2016-09-18T07:53:16.663Z,18.98
2016-09-18T07:54:17.336Z,19.08
2016-09-18T07:55:17.978Z,19.24
2016-09-18T07:56:18.632Z,19.36
2016-09-18T07:57:19.328Z,19.21
2016-09-18T07:58:19.997Z,19.56
2016-09-18T07:59:20.644Z,19.85
2016-09-18T08:00:21.417Z,19.27
2016-09-18T08:01:22.140Z,19.15
2016-09-18T08:02:23.860Z,19.02
2016-09-18T08:03:24.545Z,19.21
2016-09-18T08:04:25.190Z,19.12
2016-09-18T08:05:25.856Z,19.04
2016-09-18T08:06:26.524Z,19.08
2016-09-18T08:07:27.215Z,18.68
2016-09-18T08:08:27.874Z,18.65
2016-09-18T08:09:28.533Z,19
2016-09-18T08:10:29.187Z,18.88
2016-09-18T08:11:29.875Z,18.8
2016-09-18T08:12:30.561Z,18.58
2016-09-18T08:13:31.251Z,18.9
2016-09-18T08:14:31.912Z,19.04
2016-09-18T08:15:32.604Z,19.07
2016-09-18T08:16:33.291Z,19.16
2016-09-18T08:17:33.976Z,18.99
2016-09-18T08:18:34.636Z,18.99
2016-09-18T08:19:35.309Z,19.3
2016-09-18T08:20:35.972Z,19.26
2016-09-18T08:21:36.629Z,19.45
2016-09-18T08:22:37.331Z,19.55
2016-09-18T08:23:38.006Z,19.7
2016-09-18T08:24:38.675Z,19.48
2016-09-18T08:25:39.353Z,19.02
2016-09-18T08:26:40.026Z,18.99
2016-09-18T08:27:40.731Z,19.07
2016-09-18T08:28:41.411Z,18.96
2016-09-18T08:29:42.080Z,18.88
2016-09-18T08:30:42.748Z,18.84
2016-09-18T08:31:43.414Z,18.84
2016-09-18T08:32:44.095Z,18.88
2016-09-18T08:33:44.763Z,18.86
2016-09-18T08:34:46.279Z,18.86
2016-09-18T08:35:46.996Z,18.83
2016-09-18T08:36:47.617Z,18.62
2016-09-18T08:37:48.283Z,18.5
2016-09-18T08:38:48.943Z,18.6
2016-09-18T08:39:49.622Z,18.7
2016-09-18T08:40:50.309Z,18.65
2016-09-18T08:41:50.960Z,18.81
2016-09-18T08:42:51.620Z,18.86
2016-09-18T08:43:52.290Z,19.07
2016-09-18T08:44:52.958Z,19.09
2016-09-18T08:45:53.627Z,19.12
2016-09-18T08:46:54.318Z,18.89
2016-09-18T08:47:54.993Z,18.83
2016-09-18T08:48:55.665Z,18.88
2016-09-18T08:49:56.339Z,18.86
2016-09-18T08:50:57.007Z,19.09
2016-09-18T08:51:57.675Z,19.31
2016-09-18T08:52:58.344Z,19.45
2016-09-18T08:53:59.007Z,19.39
2016-09-18T08:54:59.671Z,19.74
2016-09-18T08:56:00.362Z,19.58
2016-09-18T08:57:01.032Z,19.71
2016-09-18T08:58:01.709Z,19.63
2016-09-18T08:59:02.393Z,19.31
2016-09-18T09:00:03.068Z,19.47
2016-09-18T09:01:03.735Z,19.3
2016-09-18T09:02:04.410Z,19.08
2016-09-18T09:03:05.065Z,19.27
2016-09-18T09:04:05.745Z,19.31
2016-09-18T09:05:06.409Z,19.21
2016-09-18T09:06:07.088Z,18.84
2016-09-18T09:07:07.757Z,18.86
2016-09-18T09:08:08.441Z,18.74
2016-09-18T09:09:09.098Z,18.89
2016-09-18T09:10:09.778Z,18.84
2016-09-18T09:11:10.443Z,18.9
2016-09-18T09:12:11.106Z,18.84
2016-09-18T09:13:11.759Z,18.81
2016-09-18T09:14:12.455Z,18.68
2016-09-18T09:15:13.123Z,18.43
2016-09-18T09:16:13.810Z,18.37
2016-09-18T09:17:14.477Z,18.43
2016-09-18T09:18:15.138Z,18.35
2016-09-18T09:19:15.824Z,18.23
2016-09-18T09:20:16.518Z,18.07
2016-09-18T09:21:17.229Z,18.13
2016-09-18T09:22:17.893Z,18.13
2016-09-18T09:23:18.572Z,18.01
2016-09-18T09:24:19.236Z,18.16
2016-09-18T09:25:19.889Z,18.2
2016-09-18T09:26:20.550Z,18.19
2016-09-18T09:27:21.223Z,18.25
2016-09-18T09:28:21.881Z,18.37
2016-09-18T09:29:22.541Z,18.22
2016-09-18T09:30:23.216Z,18.19
2016-09-18T09:31:23.874Z,18.25
2016-09-18T09:32:24.535Z,18.33
2016-09-18T09:33:25.193Z,18.38
2016-09-18T09:34:25.994Z,18.33
2016-09-18T09:35:26.532Z,18.4
2016-09-18T09:36:27.262Z,18.5
2016-09-18T09:37:27.908Z,18.52
2016-09-18T09:38:28.556Z,18.52
2016-09-18T09:39:29.223Z,18.45
2016-09-18T09:40:29.901Z,18.5
2016-09-18T09:41:30.567Z,18.5
2016-09-18T09:42:31.217Z,18.53
2016-09-18T09:43:31.889Z,18.55
2016-09-18T09:44:32.536Z,18.62
2016-09-18T09:45:33.187Z,18.74
2016-09-18T09:46:33.881Z,18.86
2016-09-18T09:47:34.542Z,18.89
2016-09-18T09:48:35.193Z,18.98
2016-09-18T09:49:35.842Z,18.88
2016-09-18T09:50:36.524Z,18.95
2016-09-18T09:51:37.196Z,18.89
2016-09-18T09:52:37.873Z,18.75
2016-09-18T09:53:38.545Z,18.9
2016-09-18T09:54:39.202Z,18.77
2016-09-18T09:55:39.846Z,18.77
2016-09-18T09:56:40.500Z,18.77
2016-09-18T09:57:41.146Z,18.66
2016-09-18T09:58:41.804Z,18.62
2016-09-18T09:59:42.463Z,18.52
2016-09-18T10:00:43.127Z,18.62
2016-09-18T10:01:43.776Z,18.6
2016-09-18T10:02:44.429Z,18.65
2016-09-18T10:03:45.077Z,18.5
2016-09-18T10:04:45.731Z,18.38
2016-09-18T10:05:46.405Z,18.43
2016-09-18T10:06:47.047Z,18.52
2016-09-18T10:07:47.701Z,18.49
2016-09-18T10:08:48.346Z,18.49
2016-09-18T10:09:49.000Z,18.49
2016-09-18T10:10:49.677Z,18.44
2016-09-18T10:11:50.367Z,18.31
2016-09-18T10:12:51.019Z,18.25
2016-09-18T10:13:51.662Z,18.31
2016-09-18T10:14:52.314Z,18.18
2016-09-18T10:15:52.991Z,18.19
2016-09-18T10:16:53.627Z,18.35
2016-09-18T10:17:54.276Z,18.28
2016-09-18T10:18:54.938Z,18.33
2016-09-18T10:19:55.598Z,18.44
2016-09-18T10:20:56.270Z,18.49
2016-09-18T10:21:56.937Z,18.56
2016-09-18T10:22:57.623Z,18.53
2016-09-18T10:23:58.277Z,18.47
2016-09-18T10:24:58.929Z,18.47
2016-09-18T10:25:59.593Z,18.19
2016-09-18T10:27:00.248Z,18.16
2016-09-18T10:28:00.969Z,18.04
2016-09-18T10:29:01.619Z,18.04
2016-09-18T10:30:02.292Z,18.1
2016-09-18T10:31:02.966Z,17.97
2016-09-18T10:32:03.626Z,18.01
2016-09-18T10:33:04.313Z,18
2016-09-18T10:34:04.968Z,18.08
2016-09-18T10:35:05.629Z,18.19
2016-09-18T10:36:06.277Z,18.15
2016-09-18T10:37:06.978Z,18.2
2016-09-18T10:38:07.617Z,18.23
2016-09-18T10:39:08.273Z,18.19
2016-09-18T10:40:08.927Z,18.35
2016-09-18T10:41:09.646Z,18.43
2016-09-18T10:42:10.350Z,18.49
2016-09-18T10:43:11.024Z,18.44
2016-09-18T10:44:11.687Z,18.47
2016-09-18T10:45:12.332Z,18.52
2016-09-18T10:46:12.987Z,18.45
2016-09-18T10:47:13.656Z,18.41
2016-09-18T10:48:14.296Z,18.43
2016-09-18T10:49:14.951Z,18.23
2016-09-18T10:50:15.620Z,18.28
2016-09-18T10:51:16.284Z,18.29
2016-09-18T10:52:16.957Z,18.37
2016-09-18T10:53:17.637Z,18.47
2016-09-18T10:54:18.323Z,18.25
2016-09-18T10:55:18.983Z,18.33
2016-09-18T10:56:19.626Z,18.31
2016-09-18T10:57:20.278Z,18.41
2016-09-18T10:58:20.942Z,18.41
2016-09-18T10:59:21.613Z,18.41
2016-09-18T11:00:22.286Z,18.23
2016-09-18T11:01:22.959Z,18.19
2016-09-18T11:02:23.606Z,18.37
2016-09-18T11:03:24.256Z,18.4
2016-09-18T11:04:24.897Z,18.35
2016-09-18T11:05:25.570Z,18.26
2016-09-18T11:06:26.224Z,18.31
2016-09-18T11:07:26.899Z,18.28
2016-09-18T11:08:27.574Z,18.38
2016-09-18T11:09:28.227Z,18.37
2016-09-18T11:10:28.917Z,18.28
2016-09-18T11:11:29.585Z,18.33
2016-09-18T11:12:30.259Z,18.2
2016-09-18T11:13:30.943Z,18.15
2016-09-18T11:14:31.604Z,18.16
2016-09-18T11:15:32.264Z,18.01
2016-09-18T11:16:32.908Z,18.01
2016-09-18T11:17:33.570Z,18
2016-09-18T11:18:34.224Z,18.1
2016-09-18T11:19:34.916Z,18.01
2016-09-18T11:20:35.568Z,18
2016-09-18T11:21:36.216Z,17.98
2016-09-18T11:22:36.884Z,18.05
2016-09-18T11:23:37.557Z,18.03
2016-09-18T11:24:38.218Z,18.05
2016-09-18T11:25:38.904Z,18.04
2016-09-18T11:26:39.570Z,18.05
2016-09-18T11:27:40.238Z,18.04
2016-09-18T11:28:40.919Z,18.07
2016-09-18T11:29:41.581Z,18.1
2016-09-18T11:30:42.264Z,18.13
2016-09-18T11:31:42.910Z,18.04
2016-09-18T11:32:43.564Z,18.01
2016-09-18T11:33:44.212Z,18.07
2016-09-18T11:34:44.856Z,17.92
2016-09-18T11:35:45.519Z,18.01
2016-09-18T11:36:46.187Z,18.03
2016-09-18T11:37:46.837Z,18.08
2016-09-18T11:38:47.481Z,17.95
2016-09-18T11:39:48.140Z,17.92
2016-09-18T11:40:48.821Z,17.89
2016-09-18T11:41:49.497Z,17.92
2016-09-18T11:42:50.142Z,17.97
2016-09-18T11:43:50.801Z,18.03
2016-09-18T11:44:51.459Z,18.15
2016-09-18T11:45:52.117Z,18.2
2016-09-18T11:46:52.780Z,18.07
2016-09-18T11:47:53.512Z,18.04
2016-09-18T11:48:54.151Z,18
2016-09-18T11:49:54.833Z,18.04
2016-09-18T11:50:55.504Z,17.98
2016-09-18T11:51:56.173Z,18.05
2016-09-18T11:52:56.832Z,18.1
2016-09-18T11:53:57.488Z,18.16
2016-09-18T11:54:58.144Z,18.19
2016-09-18T11:55:58.868Z,18.03
2016-09-18T11:56:59.533Z,18.08
2016-09-18T11:58:00.209Z,18.33
2016-09-18T11:59:00.880Z,18.34
2016-09-18T12:00:01.533Z,18.33
2016-09-18T12:01:02.214Z,18.19
2016-09-18T12:02:02.881Z,18.29
2016-09-18T12:03:03.573Z,18.37
2016-09-18T12:04:04.247Z,18.4
2016-09-18T12:05:04.928Z,18.45
2016-09-18T12:06:05.576Z,18.5
2016-09-18T12:07:06.237Z,18.38
2016-09-18T12:08:06.888Z,18.4
2016-09-18T12:09:07.547Z,18.43
2016-09-18T12:10:08.227Z,18.47
2016-09-18T12:11:08.918Z,18.23
2016-09-18T12:12:09.595Z,18.22
2016-09-18T12:13:10.297Z,18.16
2016-09-18T12:14:10.984Z,18.22
2016-09-18T12:15:11.644Z,18.13
2016-09-18T12:16:12.284Z,18.11
2016-09-18T12:17:12.941Z,18.2
2016-09-18T12:18:13.625Z,18.33
2016-09-18T12:19:14.285Z,18.35
2016-09-18T12:20:14.954Z,18.41
2016-09-18T12:21:15.626Z,18.35
2016-09-18T12:22:16.297Z,18.28
2016-09-18T12:23:16.988Z,18.31
2016-09-18T12:24:17.645Z,18.31
2016-09-18T12:25:18.317Z,18.37
2016-09-18T12:26:18.976Z,18.37
2016-09-18T12:27:19.645Z,18.35
2016-09-18T12:28:20.304Z,18.38
2016-09-18T12:29:20.973Z,18.43
2016-09-18T12:30:21.635Z,18.53
2016-09-18T12:31:22.286Z,18.43
2016-09-18T12:32:22.940Z,18.4
2016-09-18T12:33:23.646Z,18.37
2016-09-18T12:34:24.307Z,18.38
2016-09-18T12:35:24.979Z,18.35
2016-09-18T12:36:25.637Z,18.49
2016-09-18T12:37:26.287Z,18.53
2016-09-18T12:38:26.957Z,18.59
2016-09-18T12:39:27.618Z,18.53
2016-09-18T12:40:28.273Z,18.62
2016-09-18T12:41:28.931Z,18.47
2016-09-18T12:42:29.594Z,18.44
2016-09-18T12:43:30.260Z,18.38
2016-09-18T12:44:30.939Z,18.49
2016-09-18T12:45:31.611Z,18.38
2016-09-18T12:46:32.263Z,18.31
2016-09-18T12:47:32.945Z,18.41
2016-09-18T12:48:33.607Z,18.38
2016-09-18T12:49:34.275Z,18.41
2016-09-18T12:50:34.932Z,18.28
2016-09-18T12:51:35.600Z,18.28
2016-09-18T12:52:36.269Z,18.38
2016-09-18T12:53:36.964Z,18.31
2016-09-18T12:54:37.641Z,18.26
2016-09-18T12:55:38.295Z,18.38
2016-09-18T12:56:38.955Z,18.29
2016-09-18T12:57:39.623Z,18.25
2016-09-18T12:58:40.296Z,18.18
2016-09-18T12:59:40.950Z,18.31
2016-09-18T13:00:41.616Z,18.38
2016-09-18T13:01:42.279Z,18.41
2016-09-18T13:02:42.944Z,18.4
2016-09-18T13:03:43.612Z,18.49